createdAt,value
2017-07-27T00:01:13.436Z,14.30
2017-07-27T00:03:41.104Z,14.30
2017-07-27T00:06:08.654Z,14.20
2017-07-27T00:08:36.210Z,14.30
2017-07-27T00:11:04.014Z,14.30
2017-07-27T00:13:31.581Z,14.30
2017-07-27T00:15:59.125Z,14.30
2017-07-27T00:18:26.714Z,14.30
2017-07-27T00:20:54.267Z,14.30
2017-07-27T00:23:22.590Z,14.30
2017-07-27T00:25:50.233Z,14.30
2017-07-27T00:28:17.805Z,14.20
2017-07-27T00:30:45.349Z,14.20
2017-07-27T00:33:12.947Z,14.20
2017-07-27T00:35:40.501Z,14.20
2017-07-27T00:38:08.049Z,14.20
2017-07-27T00:40:35.627Z,14.20
2017-07-27T00:43:03.181Z,14.20
2017-07-27T00:45:30.728Z,14.20
2017-07-27T00:47:58.340Z,14.10
2017-07-27T00:50:25.880Z,14.10
2017-07-27T00:52:54.226Z,14.00
2017-07-27T00:55:21.800Z,14.00
2017-07-27T00:57:49.349Z,13.90
2017-07-27T01:00:16.902Z,13.80
2017-07-27T01:02:44.497Z,13.70
2017-07-27T01:05:12.059Z,13.70
2017-07-27T01:07:39.621Z,13.60
2017-07-27T01:10:07.286Z,13.60
2017-07-27T01:12:34.833Z,13.60
2017-07-27T01:15:02.386Z,13.60
2017-07-27T01:17:30.005Z,13.60
2017-07-27T01:19:57.577Z,13.70
2017-07-27T01:22:25.125Z,13.70
2017-07-27T01:24:52.700Z,13.70
2017-07-27T01:27:20.258Z,13.70
2017-07-27T01:29:47.817Z,13.80
2017-07-27T01:32:15.441Z,13.80
2017-07-27T01:34:42.993Z,13.90
2017-07-27T01:37:10.545Z,13.80
2017-07-27T01:39:38.185Z,13.80
2017-07-27T01:42:05.738Z,13.90
2017-07-27T01:44:33.288Z,14.00
2017-07-27T01:47:00.879Z,14.00
2017-07-27T01:49:28.505Z,13.90
2017-07-27T01:51:56.059Z,13.90
2017-07-27T01:54:23.929Z,14.00
2017-07-27T01:56:51.546Z,13.90
2017-07-27T01:59:19.092Z,14.00
2017-07-27T02:01:46.726Z,13.90
2017-07-27T02:04:14.278Z,13.80
2017-07-27T02:06:41.834Z,13.80
2017-07-27T02:09:09.414Z,13.80
2017-07-27T02:11:36.957Z,13.70
2017-07-27T02:14:04.564Z,13.70
2017-07-27T02:16:32.177Z,13.60
2017-07-27T02:18:59.734Z,13.60
2017-07-27T02:21:27.298Z,13.70
2017-07-27T02:23:54.913Z,13.60
2017-07-27T02:26:22.457Z,13.60
2017-07-27T02:28:50.014Z,13.50
2017-07-27T02:31:17.601Z,13.40
2017-07-27T02:33:45.145Z,13.40
2017-07-27T02:36:12.700Z,13.40
2017-07-27T02:38:40.317Z,13.30
2017-07-27T02:41:07.869Z,13.20
2017-07-27T02:43:35.499Z,13.20
2017-07-27T02:46:03.075Z,13.10
2017-07-27T02:48:30.625Z,13.00
2017-07-27T02:50:58.174Z,12.90
2017-07-27T02:53:25.759Z,12.90
2017-07-27T02:55:53.745Z,12.80
2017-07-27T02:58:21.297Z,12.80
2017-07-27T03:00:49.265Z,12.80
2017-07-27T03:03:16.818Z,12.70
2017-07-27T03:05:44.365Z,12.70
2017-07-27T03:08:11.944Z,12.70
2017-07-27T03:10:39.498Z,12.80
2017-07-27T03:13:07.113Z,12.80
2017-07-27T03:15:34.713Z,12.80
2017-07-27T03:18:02.265Z,12.80
2017-07-27T03:20:29.813Z,12.80
2017-07-27T03:22:57.438Z,12.80
2017-07-27T03:25:24.985Z,12.80
2017-07-27T03:27:52.533Z,12.90
2017-07-27T03:30:20.154Z,12.90
2017-07-27T03:32:47.781Z,12.90
2017-07-27T03:35:15.361Z,13.00
2017-07-27T03:37:42.941Z,12.90
2017-07-27T03:40:10.494Z,12.90
2017-07-27T03:42:38.037Z,12.80
2017-07-27T03:45:05.645Z,12.70
2017-07-27T03:47:33.202Z,12.70
2017-07-27T03:50:00.745Z,12.70
2017-07-27T03:52:28.462Z,12.70
2017-07-27T03:54:56.093Z,12.70
2017-07-27T03:57:24.094Z,12.70
2017-07-27T03:59:51.698Z,12.70
2017-07-27T04:02:19.317Z,12.80
2017-07-27T04:04:46.905Z,12.80
2017-07-27T04:07:14.525Z,12.80
2017-07-27T04:09:42.101Z,12.80
2017-07-27T04:12:09.675Z,12.80
2017-07-27T04:14:37.246Z,12.80
2017-07-27T04:17:05.616Z,12.90
2017-07-27T04:19:33.245Z,12.90
2017-07-27T04:22:00.929Z,12.90
2017-07-27T04:24:28.485Z,12.90
2017-07-27T04:26:56.038Z,13.00
2017-07-27T04:29:23.661Z,13.00
2017-07-27T04:31:51.208Z,13.00
2017-07-27T04:34:18.825Z,13.00
2017-07-27T04:36:46.486Z,13.10
2017-07-27T04:39:14.065Z,13.10
2017-07-27T04:41:41.620Z,13.00
2017-07-27T04:44:09.204Z,13.10
2017-07-27T04:46:36.762Z,13.10
2017-07-27T04:49:04.321Z,13.20
2017-07-27T04:51:31.986Z,13.20
2017-07-27T04:53:59.536Z,13.30
2017-07-27T04:56:27.083Z,13.30
2017-07-27T04:58:54.726Z,13.30
2017-07-27T05:01:22.304Z,13.30
2017-07-27T05:03:49.918Z,13.40
2017-07-27T05:06:18.477Z,13.40
2017-07-27T05:08:46.056Z,13.40
2017-07-27T05:11:13.601Z,13.50
2017-07-27T05:13:41.361Z,13.60
2017-07-27T05:16:08.917Z,13.70
2017-07-27T05:18:36.460Z,13.70
2017-07-27T05:21:04.046Z,13.80
2017-07-27T05:23:31.596Z,13.90
2017-07-27T05:25:59.149Z,14.00
2017-07-27T05:28:26.728Z,14.10
2017-07-27T05:30:54.278Z,14.10
2017-07-27T05:33:21.837Z,14.20
2017-07-27T05:35:49.437Z,14.30
2017-07-27T05:38:17.749Z,14.40
2017-07-27T05:40:45.301Z,14.40
2017-07-27T05:43:13.084Z,14.60
2017-07-27T05:45:40.628Z,14.70
2017-07-27T05:48:08.168Z,14.80
2017-07-27T05:50:35.748Z,14.90
2017-07-27T05:53:03.286Z,15.00
2017-07-27T05:55:30.830Z,15.20
2017-07-27T05:57:58.445Z,15.30
2017-07-27T06:00:26.380Z,15.60
2017-07-27T06:02:53.930Z,16.20
2017-07-27T06:05:22.283Z,18.10
2017-07-27T06:07:49.828Z,18.10
2017-07-27T06:10:17.951Z,18.90
2017-07-27T06:12:45.521Z,19.80
2017-07-27T06:15:13.422Z,20.50
2017-07-27T06:17:40.960Z,21.50
2017-07-27T06:20:08.709Z,22.50
2017-07-27T06:22:36.257Z,23.40
2017-07-27T06:25:03.807Z,23.70
2017-07-27T06:27:32.157Z,24.50
2017-07-27T06:29:59.710Z,24.50
2017-07-27T06:32:27.256Z,24.80
2017-07-27T06:34:54.834Z,25.10
2017-07-27T06:37:22.385Z,24.20
2017-07-27T06:39:49.933Z,23.20
2017-07-27T06:42:17.543Z,22.20
2017-07-27T06:44:45.853Z,21.60
2017-07-27T06:47:13.417Z,21.60
2017-07-27T06:49:41.034Z,21.40
2017-07-27T06:52:08.577Z,20.90
2017-07-27T06:54:36.128Z,20.70
2017-07-27T06:57:03.697Z,20.30
2017-07-27T06:59:31.238Z,20.00
2017-07-27T07:01:59.099Z,19.70
2017-07-27T07:04:26.866Z,19.60
2017-07-27T07:06:54.418Z,19.60
2017-07-27T07:09:21.969Z,19.50
2017-07-27T07:11:49.543Z,19.50
2017-07-27T07:14:17.085Z,19.50
2017-07-27T07:16:44.629Z,19.80
2017-07-27T07:19:12.204Z,19.90
2017-07-27T07:21:39.746Z,20.10
2017-07-27T07:24:07.288Z,20.20
2017-07-27T07:26:34.903Z,20.20
2017-07-27T07:29:02.458Z,20.10
2017-07-27T07:31:30.009Z,20.20
2017-07-27T07:33:57.583Z,19.90
2017-07-27T07:36:25.125Z,20.10
2017-07-27T07:38:52.673Z,20.10
2017-07-27T07:41:20.250Z,20.20
2017-07-27T07:43:47.788Z,20.30
2017-07-27T07:46:15.706Z,20.40
2017-07-27T07:48:43.557Z,20.50
2017-07-27T07:51:11.101Z,20.60
2017-07-27T07:53:38.646Z,20.60
2017-07-27T07:56:06.252Z,20.70
2017-07-27T07:58:33.797Z,20.80
2017-07-27T08:01:01.337Z,20.90
2017-07-27T08:03:29.114Z,20.80
2017-07-27T08:05:56.657Z,20.50
2017-07-27T08:08:24.197Z,20.40
2017-07-27T08:10:51.811Z,20.50
2017-07-27T08:13:19.358Z,20.60
2017-07-27T08:15:46.897Z,20.60
2017-07-27T08:18:14.480Z,20.60
2017-07-27T08:20:42.700Z,20.80
2017-07-27T08:23:10.240Z,20.80
2017-07-27T08:25:37.805Z,20.60
2017-07-27T08:28:05.345Z,20.50
2017-07-27T08:30:32.897Z,20.60
2017-07-27T08:33:00.514Z,20.60
2017-07-27T08:35:28.825Z,20.30
2017-07-27T08:37:56.373Z,20.30
2017-07-27T08:40:23.942Z,20.20
2017-07-27T08:42:51.485Z,20.20
2017-07-27T08:45:19.033Z,20.20
2017-07-27T08:47:47.377Z,20.30
2017-07-27T08:50:14.947Z,20.20
2017-07-27T08:52:42.498Z,20.40
2017-07-27T08:55:10.102Z,20.40
2017-07-27T08:57:37.767Z,20.60
2017-07-27T09:00:05.317Z,20.60
2017-07-27T09:02:33.705Z,20.70
2017-07-27T09:05:02.895Z,20.70
2017-07-27T09:07:30.441Z,20.70
2017-07-27T09:09:58.788Z,20.40
2017-07-27T09:12:26.334Z,20.40
2017-07-27T09:14:53.881Z,20.20
2017-07-27T09:17:21.478Z,20.20
2017-07-27T09:19:49.120Z,20.40
2017-07-27T09:22:16.665Z,20.40
2017-07-27T09:24:44.446Z,20.50
2017-07-27T09:27:11.989Z,20.70
2017-07-27T09:29:39.719Z,20.80
2017-07-27T09:32:07.329Z,21.00
2017-07-27T09:34:34.870Z,21.20
2017-07-27T09:37:02.422Z,21.70
2017-07-27T09:39:30.394Z,22.00
2017-07-27T09:41:57.961Z,22.20
2017-07-27T09:44:25.518Z,22.60
2017-07-27T09:46:53.093Z,22.90
2017-07-27T09:49:20.637Z,23.10
2017-07-27T09:51:48.178Z,23.00
2017-07-27T09:54:15.752Z,22.30
2017-07-27T09:56:43.293Z,22.30
2017-07-27T09:59:11.605Z,22.30
2017-07-27T10:01:39.375Z,22.30
2017-07-27T10:04:06.922Z,22.60
2017-07-27T10:06:34.766Z,22.70
2017-07-27T10:09:02.418Z,22.60
2017-07-27T10:11:30.809Z,22.20
2017-07-27T10:13:58.402Z,22.30
2017-07-27T10:16:25.978Z,22.00
2017-07-27T10:18:53.523Z,21.80
2017-07-27T10:21:21.073Z,21.70
2017-07-27T10:23:48.694Z,21.80
2017-07-27T10:26:17.045Z,21.30
2017-07-27T10:28:45.876Z,21.30
2017-07-27T10:31:14.893Z,20.90
2017-07-27T10:33:42.434Z,20.40
2017-07-27T10:36:09.979Z,20.10
2017-07-27T10:38:38.322Z,19.80
2017-07-27T10:41:05.873Z,19.80
2017-07-27T10:43:33.417Z,19.90
2017-07-27T10:46:01.032Z,19.80
2017-07-27T10:48:28.574Z,19.70
2017-07-27T10:50:56.121Z,19.50
2017-07-27T10:53:23.688Z,19.50
2017-07-27T10:55:51.233Z,19.40
2017-07-27T10:58:18.777Z,19.10
2017-07-27T11:00:46.352Z,19.00
2017-07-27T11:03:13.901Z,18.80
2017-07-27T11:05:41.436Z,18.80
2017-07-27T11:08:09.376Z,18.70
2017-07-27T11:10:36.921Z,18.60
2017-07-27T11:13:04.478Z,18.50
2017-07-27T11:15:32.104Z,18.50
2017-07-27T11:17:59.645Z,18.40
2017-07-27T11:20:27.193Z,18.30
2017-07-27T11:22:54.789Z,18.00
2017-07-27T11:25:22.338Z,18.00
2017-07-27T11:27:49.881Z,18.00
2017-07-27T11:30:17.493Z,18.00
2017-07-27T11:32:45.038Z,17.90
2017-07-27T11:35:12.576Z,17.80
2017-07-27T11:37:40.146Z,17.70
2017-07-27T11:40:07.702Z,17.70
2017-07-27T11:42:35.249Z,17.60
2017-07-27T11:45:02.828Z,17.60
2017-07-27T11:47:30.377Z,17.70
2017-07-27T11:49:57.922Z,17.60
2017-07-27T11:52:25.535Z,17.70
2017-07-27T11:54:53.090Z,17.80
2017-07-27T11:57:20.641Z,18.00
2017-07-27T11:59:48.222Z,18.00
2017-07-27T12:02:15.769Z,18.10
2017-07-27T12:04:43.318Z,18.00
2017-07-27T12:07:10.901Z,18.10
2017-07-27T12:09:38.822Z,18.00
2017-07-27T12:12:06.381Z,18.10
2017-07-27T12:14:34.422Z,18.00
2017-07-27T12:17:02.737Z,17.70
2017-07-27T12:19:30.286Z,17.60
2017-07-27T12:21:57.918Z,17.40
2017-07-27T12:24:25.470Z,17.40
2017-07-27T12:26:53.330Z,17.30
2017-07-27T12:29:20.914Z,17.20
2017-07-27T12:31:48.477Z,17.10
2017-07-27T12:34:16.796Z,17.00
2017-07-27T12:36:44.560Z,16.90
2017-07-27T12:39:12.158Z,17.00
2017-07-27T12:41:39.702Z,16.90
2017-07-27T12:44:07.274Z,16.90
2017-07-27T12:46:34.823Z,16.90
2017-07-27T12:49:02.361Z,17.00
2017-07-27T12:51:29.925Z,17.10
2017-07-27T12:53:57.473Z,17.10
2017-07-27T12:56:25.018Z,17.10
2017-07-27T12:58:52.620Z,17.00
2017-07-27T13:01:20.166Z,17.10
2017-07-27T13:03:47.704Z,17.20
2017-07-27T13:06:15.274Z,17.30
2017-07-27T13:08:42.817Z,17.20
2017-07-27T13:11:11.029Z,17.10
2017-07-27T13:13:38.606Z,17.20
2017-07-27T13:16:06.150Z,17.20
2017-07-27T13:18:33.699Z,17.10
2017-07-27T13:21:01.309Z,17.10
2017-07-27T13:23:29.619Z,17.10
2017-07-27T13:25:57.168Z,17.10
2017-07-27T13:28:24.793Z,17.10
2017-07-27T13:30:52.338Z,17.20
2017-07-27T13:33:20.623Z,17.30
2017-07-27T13:35:48.212Z,17.50
2017-07-27T13:38:16.521Z,17.90
2017-07-27T13:40:44.061Z,17.90
2017-07-27T13:43:11.693Z,18.00
2017-07-27T13:45:39.238Z,18.00
2017-07-27T13:48:06.777Z,18.10
2017-07-27T13:50:34.362Z,18.40
2017-07-27T13:53:01.915Z,18.40
2017-07-27T13:55:29.469Z,18.30
2017-07-27T13:57:57.041Z,18.10
2017-07-27T14:00:24.582Z,18.30
2017-07-27T14:02:52.121Z,18.20
2017-07-27T14:05:19.721Z,18.40
2017-07-27T14:07:48.384Z,18.30
2017-07-27T14:10:15.926Z,18.30
2017-07-27T14:12:44.025Z,18.40
2017-07-27T14:15:11.569Z,18.40
2017-07-27T14:17:39.288Z,18.60
2017-07-27T14:20:07.637Z,18.70
2017-07-27T14:22:35.170Z,18.60
2017-07-27T14:25:02.710Z,18.70
2017-07-27T14:27:30.329Z,18.50
2017-07-27T14:29:59.993Z,18.50
2017-07-27T14:32:27.540Z,18.70
2017-07-27T14:34:55.214Z,18.80
2017-07-27T14:37:22.761Z,18.60
2017-07-27T14:39:50.314Z,18.60
2017-07-27T14:42:18.053Z,18.60
2017-07-27T14:44:45.593Z,18.70
2017-07-27T14:47:13.135Z,18.70
2017-07-27T14:49:40.745Z,18.90
2017-07-27T14:52:08.333Z,19.10
2017-07-27T14:54:35.874Z,19.40
2017-07-27T14:57:03.465Z,19.70
2017-07-27T14:59:31.014Z,19.80
2017-07-27T15:01:58.562Z,19.80
2017-07-27T15:04:26.129Z,19.90
2017-07-27T15:06:53.677Z,19.80
2017-07-27T15:09:21.985Z,19.70
2017-07-27T15:11:49.617Z,19.70
2017-07-27T15:14:17.801Z,19.80
2017-07-27T15:16:45.355Z,19.90
2017-07-27T15:19:12.930Z,20.00
2017-07-27T15:21:40.473Z,20.00
2017-07-27T15:24:08.026Z,19.90
2017-07-27T15:26:36.393Z,20.10
2017-07-27T15:29:04.705Z,20.10
2017-07-27T15:31:32.255Z,20.10
2017-07-27T15:33:59.865Z,20.30
2017-07-27T15:36:27.405Z,20.30
2017-07-27T15:38:54.957Z,20.20
2017-07-27T15:41:22.581Z,20.20
2017-07-27T15:43:50.125Z,20.20
2017-07-27T15:46:17.664Z,20.10
2017-07-27T15:48:45.254Z,20.20
2017-07-27T15:51:12.869Z,20.20
2017-07-27T15:53:40.414Z,20.00
2017-07-27T15:56:08.292Z,20.10
2017-07-27T15:58:37.714Z,20.10
2017-07-27T16:01:05.381Z,20.10
2017-07-27T16:03:33.021Z,20.00
2017-07-27T16:06:00.575Z,19.90
2017-07-27T16:08:28.129Z,20.00
2017-07-27T16:10:55.701Z,20.10
2017-07-27T16:13:23.241Z,20.30
2017-07-27T16:15:51.304Z,20.40
2017-07-27T16:18:20.169Z,20.60
2017-07-27T16:20:47.745Z,20.60
2017-07-27T16:23:17.937Z,20.60
2017-07-27T16:25:45.504Z,20.60
2017-07-27T16:28:13.133Z,20.70
2017-07-27T16:30:40.762Z,20.70
2017-07-27T16:33:08.347Z,20.70
2017-07-27T16:35:36.000Z,20.70
2017-07-27T16:38:03.577Z,20.70
2017-07-27T16:40:33.066Z,20.70
2017-07-27T16:43:00.642Z,20.60
2017-07-27T16:45:32.680Z,20.70
2017-07-27T16:48:00.314Z,20.80
2017-07-27T16:50:29.674Z,20.80
2017-07-27T16:52:57.226Z,20.70
2017-07-27T16:55:40.241Z,20.70
2017-07-27T16:58:07.877Z,20.60
2017-07-27T17:00:35.441Z,20.50
2017-07-27T17:03:03.337Z,20.50
2017-07-27T17:05:30.886Z,20.40
2017-07-27T17:07:58.438Z,20.40
2017-07-27T17:10:26.020Z,20.30
2017-07-27T17:12:53.566Z,20.10
2017-07-27T17:15:21.105Z,20.20
2017-07-27T17:17:49.234Z,20.20
2017-07-27T17:20:16.856Z,20.10
2017-07-27T17:22:44.422Z,20.10
2017-07-27T17:25:12.023Z,20.10
2017-07-27T17:27:40.507Z,20.10
2017-07-27T17:30:08.074Z,20.10
2017-07-27T17:32:35.691Z,20.20
2017-07-27T17:35:03.251Z,20.20
2017-07-27T17:37:30.817Z,20.20
2017-07-27T17:39:58.730Z,20.10
2017-07-27T17:42:28.310Z,20.20
2017-07-27T17:44:55.882Z,20.20
2017-07-27T17:47:23.485Z,20.20
2017-07-27T17:49:51.093Z,20.10
2017-07-27T17:52:18.658Z,20.20
2017-07-27T17:54:46.291Z,20.30
2017-07-27T17:57:13.862Z,20.30
2017-07-27T17:59:41.418Z,20.20
2017-07-27T18:02:09.081Z,20.20
2017-07-27T18:04:36.664Z,20.10
2017-07-27T18:07:04.247Z,20.00
2017-07-27T18:09:31.870Z,20.00
2017-07-27T18:11:59.433Z,20.00
2017-07-27T18:14:27.034Z,20.00
2017-07-27T18:16:54.650Z,20.00
2017-07-27T18:19:22.944Z,20.00
2017-07-27T18:21:50.546Z,19.90
2017-07-27T18:24:18.474Z,19.90
2017-07-27T18:26:46.116Z,19.90
2017-07-27T18:29:13.774Z,19.90
2017-07-27T18:31:41.402Z,19.90
2017-07-27T18:34:09.017Z,19.90
2017-07-27T18:36:36.689Z,19.80
2017-07-27T18:39:04.320Z,19.70
2017-07-27T18:41:31.898Z,19.70
2017-07-27T18:44:00.248Z,19.60
2017-07-27T18:46:27.906Z,19.60
2017-07-27T18:48:55.803Z,19.50
2017-07-27T18:51:23.423Z,19.50
2017-07-27T18:53:51.015Z,19.40
2017-07-27T18:56:18.623Z,19.40
2017-07-27T18:58:46.188Z,19.30
2017-07-27T19:01:13.810Z,19.30
2017-07-27T19:03:41.361Z,19.30
2017-07-27T19:06:08.913Z,19.20
2017-07-27T19:08:36.541Z,19.10
2017-07-27T19:11:04.097Z,19.10
2017-07-27T19:13:34.595Z,19.10
2017-07-27T19:16:02.362Z,19.10
2017-07-27T19:18:29.919Z,19.00
2017-07-27T19:20:57.950Z,19.00
2017-07-27T19:23:25.525Z,19.00
2017-07-27T19:25:53.088Z,19.00
2017-07-27T19:28:20.634Z,18.90
2017-07-27T19:33:58.483Z,18.80
2017-07-27T19:36:29.066Z,18.80
2017-07-27T19:38:56.671Z,18.70
2017-07-27T19:41:24.283Z,18.70
2017-07-27T19:43:51.869Z,18.60
2017-07-27T19:46:19.490Z,18.60
2017-07-27T19:48:47.262Z,18.60
2017-07-27T19:51:14.878Z,18.50
2017-07-27T19:53:42.438Z,18.50
2017-07-27T19:56:10.056Z,18.50
2017-07-27T19:58:37.642Z,18.50
2017-07-27T20:01:05.186Z,18.50
2017-07-27T20:03:32.758Z,18.50
2017-07-27T20:06:00.377Z,18.50
2017-07-27T20:08:27.925Z,18.50
2017-07-27T20:10:55.477Z,18.40
2017-07-27T20:13:23.090Z,18.40
2017-07-27T20:15:50.636Z,18.30
2017-07-27T20:18:18.944Z,18.30
2017-07-27T20:20:46.525Z,18.30
2017-07-27T20:23:14.681Z,18.20
2017-07-27T20:25:42.218Z,18.20
2017-07-27T20:28:09.782Z,18.10
2017-07-27T20:30:37.410Z,18.10
2017-07-27T20:33:05.206Z,18.00
2017-07-27T20:35:33.474Z,17.80
2017-07-27T20:38:01.093Z,17.80
2017-07-27T20:40:29.437Z,17.70
2017-07-27T20:42:57.127Z,17.80
2017-07-27T20:45:25.124Z,17.70
2017-07-27T20:47:52.753Z,17.60
2017-07-27T20:50:20.432Z,17.60
2017-07-27T20:52:48.252Z,17.60
2017-07-27T20:55:15.874Z,17.50
2017-07-27T21:00:55.398Z,17.50
2017-07-27T21:06:08.932Z,17.60
2017-07-27T21:08:36.562Z,17.60
2017-07-27T21:11:04.362Z,17.60
2017-07-27T21:13:31.992Z,17.50
2017-07-27T21:15:59.626Z,17.50
2017-07-27T21:18:27.214Z,17.50
2017-07-27T21:20:54.843Z,17.50
2017-07-27T21:23:23.572Z,17.50
2017-07-27T21:25:51.369Z,17.50
2017-07-27T21:28:19.006Z,17.40
2017-07-27T21:30:46.651Z,17.50
2017-07-27T21:33:14.202Z,17.50
2017-07-27T21:35:41.813Z,17.50
2017-07-27T21:38:09.501Z,17.40
2017-07-27T21:40:37.843Z,17.40
2017-07-27T21:43:05.490Z,17.30
2017-07-27T21:45:33.128Z,17.30
2017-07-27T21:48:01.506Z,17.20
2017-07-27T21:50:29.066Z,17.20
2017-07-27T21:52:56.692Z,17.20
2017-07-27T21:55:24.292Z,17.10
2017-07-27T21:57:51.842Z,17.10
2017-07-27T22:00:19.472Z,17.00
2017-07-27T22:02:47.029Z,17.00
2017-07-27T22:05:14.647Z,17.10
2017-07-27T22:07:42.277Z,17.00
2017-07-27T22:10:09.988Z,17.10
2017-07-27T22:12:37.533Z,16.90
2017-07-27T22:15:05.136Z,17.00
2017-07-27T22:17:32.758Z,17.00
2017-07-27T22:20:00.373Z,17.00
2017-07-27T22:22:28.122Z,17.10
2017-07-27T22:24:56.213Z,17.10
2017-07-27T22:27:24.002Z,17.20
2017-07-27T22:29:51.574Z,17.20
2017-07-27T22:32:19.226Z,17.20
2017-07-27T22:35:07.771Z,17.10
2017-07-27T22:40:28.777Z,17.00
2017-07-27T22:42:56.514Z,16.80
2017-07-27T22:45:26.835Z,16.80
2017-07-27T22:47:54.517Z,16.70
2017-07-27T22:50:22.941Z,16.90
2017-07-27T22:52:50.565Z,16.90
2017-07-27T22:55:18.193Z,16.90
2017-07-27T22:57:45.808Z,16.90
2017-07-27T23:00:13.438Z,16.90
2017-07-27T23:02:41.066Z,17.00
2017-07-27T23:05:08.692Z,16.80
2017-07-27T23:07:36.306Z,16.80
2017-07-27T23:10:03.924Z,16.90
2017-07-27T23:12:31.522Z,16.90
2017-07-27T23:14:59.149Z,17.00
2017-07-27T23:17:26.785Z,17.00
2017-07-27T23:19:54.590Z,16.90
2017-07-27T23:22:22.186Z,17.00
2017-07-27T23:24:49.960Z,17.00
2017-07-27T23:27:18.170Z,17.00
2017-07-27T23:29:46.543Z,17.00
2017-07-27T23:32:14.931Z,17.00
2017-07-27T23:34:42.541Z,17.00
2017-07-27T23:37:10.142Z,17.00
2017-07-27T23:39:37.790Z,17.00
2017-07-27T23:42:05.415Z,17.00
2017-07-27T23:44:33.511Z,17.00
2017-07-27T23:47:01.123Z,17.00
2017-07-27T23:49:28.664Z,17.00
2017-07-27T23:51:57.037Z,17.00
2017-07-27T23:54:24.659Z,16.90
2017-07-27T23:56:52.271Z,16.90
2017-07-27T23:59:19.829Z,17.00
